Time;durP1;ratioP1;P1;durP2;ratioP2;P2;SDS_P1;SDS_P2;PMS_P1;PMS_P2;Temp;Humidity;BMP_temperature;BMP_pressure;BME280_temperature;BME280_humidity;BME280_pressure;Samples;Min_cycle;Max_cycle;Signal;HPM_P1;HPM_P2
2022/03/13 00:00:54;;;;;;;15.75;10.90;;;12.80;65.60;;;;;;5012449;28;20064;-73
2022/03/13 00:03:21;;;;;;;16.10;10.63;;;12.90;65.60;;;;;;5011087;28;20556;-73
2022/03/13 00:05:49;;;;;;;14.75;10.80;;;12.80;65.20;;;;;;5011400;28;20042;-73
2022/03/13 00:08:27;;;;;;;15.77;11.35;;;12.80;65.30;;;;;;5003957;28;20109;-73
2022/03/13 00:11:08;;;;;;;16.67;10.73;;;12.70;65.30;;;;;;5007299;28;20048;-75
2022/03/13 00:13:36;;;;;;;18.40;10.48;;;12.80;65.40;;;;;;4998886;28;20435;-73
2022/03/13 00:16:08;;;;;;;18.38;11.25;;;12.70;65.30;;;;;;5008338;28;20113;-73
2022/03/13 00:18:35;;;;;;;14.60;10.65;;;12.70;65.20;;;;;;5006036;28;20045;-73
2022/03/13 00:21:04;;;;;;;15.80;10.10;;;12.80;65.20;;;;;;5009836;28;20100;-73
2022/03/13 00:23:34;;;;;;;15.75;11.27;;;12.70;65.20;;;;;;5003650;28;20041;-74
2022/03/13 00:26:00;;;;;;;17.92;10.63;;;12.70;65.20;;;;;;4994091;28;20029;-73
2022/03/13 00:28:26;;;;;;;13.32;10.07;;;12.70;65.10;;;;;;4999927;28;20033;-74
2022/03/13 00:30:52;;;;;;;13.77;9.73;;;12.70;65.70;;;;;;5010413;28;20038;-74
2022/03/13 00:33:18;;;;;;;14.45;10.20;;;12.70;65.10;;;;;;5000628;28;20030;-74
2022/03/13 00:35:43;;;;;;;15.45;10.77;;;12.60;65.20;;;;;;5009835;28;20030;-74
2022/03/13 00:38:09;;;;;;;16.00;10.77;;;12.60;65.60;;;;;;5004186;28;20027;-75
2022/03/13 00:40:35;;;;;;;13.70;10.77;;;12.50;65.80;;;;;;5010208;28;20031;-74
2022/03/13 00:43:01;;;;;;;16.25;10.15;;;12.40;66.10;;;;;;5003997;28;20038;-74
2022/03/13 00:45:29;;;;;;;15.45;10.50;;;12.30;66.20;;;;;;4997731;28;20052;-74
2022/03/13 00:47:55;;;;;;;16.58;10.23;;;12.30;66.30;;;;;;5002649;28;20033;-74
2022/03/13 00:50:20;;;;;;;13.43;9.95;;;12.30;66.60;;;;;;5008870;28;20030;-74
2022/03/13 00:52:46;;;;;;;15.27;10.45;;;12.30;66.70;;;;;;4995406;28;20018;-74
2022/03/13 00:55:12;;;;;;;15.63;9.88;;;12.30;66.60;;;;;;5002864;28;20022;-74
2022/03/13 00:57:38;;;;;;;18.27;10.80;;;12.40;66.70;;;;;;5008185;28;20026;-74
2022/03/13 01:00:05;;;;;;;19.70;9.80;;;12.30;66.70;;;;;;5000564;28;20362;-73
2022/03/13 01:02:31;;;;;;;14.50;9.85;;;12.30;66.80;;;;;;4993057;28;20500;-74
2022/03/13 01:04:57;;;;;;;13.73;9.85;;;12.30;66.90;;;;;;5006900;28;20026;-74
2022/03/13 01:07:22;;;;;;;14.13;9.38;;;12.30;66.90;;;;;;5003875;28;20055;-74
2022/03/13 01:09:48;;;;;;;12.88;9.48;;;12.40;67.10;;;;;;5003834;28;20046;-74
2022/03/13 01:12:13;;;;;;;15.85;9.43;;;12.30;66.90;;;;;;5006221;28;20413;-74
2022/03/13 01:14:39;;;;;;;13.73;10.07;;;12.40;66.90;;;;;;4993753;28;20022;-74
2022/03/13 01:17:08;;;;;;;15.10;10.30;;;12.40;66.90;;;;;;5000538;28;20030;-74
2022/03/13 01:19:33;;;;;;;13.55;10.43;;;12.40;66.90;;;;;;5009535;28;20018;-74
2022/03/13 01:22:00;;;;;;;16.92;9.85;;;12.30;67.00;;;;;;5000260;28;20113;-74
2022/03/13 01:24:29;;;;;;;15.15;10.50;;;12.30;67.20;;;;;;4994723;28;20027;-74
2022/03/13 01:27:02;;;;;;;14.60;10.20;;;12.30;67.90;;;;;;4995128;28;20040;-74
2022/03/13 01:29:30;;;;;;;14.73;9.95;;;12.30;67.30;;;;;;5011375;28;20034;-74
2022/03/13 01:31:56;;;;;;;15.98;10.95;;;12.30;67.30;;;;;;5006173;28;20085;-74
2022/03/13 01:34:43;;;;;;;14.68;10.05;;;12.40;67.40;;;;;;5012882;28;20033;-74
2022/03/13 01:37:33;;;;;;;14.23;11.02;;;12.40;67.10;;;;;;5008093;28;20073;-74
2022/03/13 01:40:10;;;;;;;18.05;11.75;;;12.40;66.70;;;;;;5002702;28;20126;-74
2022/03/13 01:42:36;;;;;;;17.17;12.57;;;12.30;66.50;;;;;;5004077;28;20022;-74
2022/03/13 01:45:09;;;;;;;16.40;11.35;;;12.20;66.60;;;;;;5001550;28;20068;-74
2022/03/13 01:47:35;;;;;;;;;;;12.20;66.80;;;;;;5008171;28;20026;-74
2022/03/13 01:50:00;;;;;;;19.08;12.30;;;12.30;66.50;;;;;;5008120;28;19917;-74
2022/03/13 01:52:28;;;;;;;18.20;12.75;;;12.20;66.20;;;;;;5010700;28;20488;-74
2022/03/13 01:54:57;;;;;;;17.63;13.02;;;12.20;66.30;;;;;;5004982;28;20497;-74
2022/03/13 01:57:24;;;;;;;21.70;13.40;;;12.10;66.50;;;;;;5002449;28;20034;-74
2022/03/13 01:59:53;;;;;;;18.88;13.85;;;12.10;66.70;;;;;;4997027;28;20030;-74
2022/03/13 02:02:20;;;;;;;24.70;14.38;;;12.00;66.80;;;;;;5001864;28;20132;-74
2022/03/13 02:04:51;;;;;;;18.30;13.52;;;12.00;67.00;;;;;;5012685;28;20037;-74
2022/03/13 02:07:17;;;;;;;20.05;14.10;;;11.90;67.40;;;;;;5006169;28;20042;-74
2022/03/13 02:09:46;;;;;;;20.02;14.60;;;11.90;67.40;;;;;;4996062;28;20093;-74
2022/03/13 02:12:12;;;;;;;22.33;15.20;;;11.80;67.40;;;;;;5000778;28;20121;-74
2022/03/13 02:14:39;;;;;;;23.58;15.15;;;11.90;67.60;;;;;;5012028;28;20041;-74
2022/03/13 02:17:05;;;;;;;20.08;14.10;;;11.80;67.80;;;;;;5008927;28;20019;-74
2022/03/13 02:19:31;;;;;;;22.95;15.05;;;11.70;68.00;;;;;;5001466;28;20018;-74
2022/03/13 02:21:59;;;;;;;20.77;14.90;;;11.70;68.20;;;;;;4996543;28;20477;-74
2022/03/13 02:24:25;;;;;;;21.80;14.27;;;11.70;68.30;;;;;;5000763;28;20477;-74
2022/03/13 02:27:06;;;;;;;20.63;14.85;;;11.70;68.20;;;;;;5003301;28;20038;-74
2022/03/13 02:29:32;;;;;;;23.77;15.80;;;11.70;68.00;;;;;;5004363;28;20045;-74
2022/03/13 02:32:02;;;;;;;23.13;15.23;;;11.80;68.10;;;;;;5006378;28;20036;-74
2022/03/13 02:34:31;;;;;;;23.10;14.30;;;11.70;68.40;;;;;;5009263;28;20029;-74
2022/03/13 02:37:01;;;;;;;22.73;14.32;;;11.80;68.30;;;;;;5001462;28;20022;-75
2022/03/13 02:39:38;;;;;;;20.67;14.73;;;11.80;68.00;;;;;;4996352;28;20499;-74
2022/03/13 02:42:06;;;;;;;21.02;14.00;;;11.90;67.70;;;;;;5002842;28;20025;-74
2022/03/13 02:44:32;;;;;;;19.42;13.82;;;11.80;67.60;;;;;;4997831;28;20027;-74
2022/03/13 02:47:05;;;;;;;18.88;14.85;;;11.80;67.60;;;;;;4996726;28;20110;-74
2022/03/13 02:49:32;;;;;;;20.10;14.15;;;11.80;67.70;;;;;;5004301;28;20095;-74
2022/03/13 02:52:01;;;;;;;20.75;14.90;;;11.70;68.30;;;;;;5011203;28;20029;-74
2022/03/13 02:54:28;;;;;;;20.20;14.50;;;11.70;68.60;;;;;;5009413;28;20440;-74
2022/03/13 02:57:01;;;;;;;24.35;15.63;;;11.60;68.10;;;;;;5000382;28;20030;-74
2022/03/13 02:59:29;;;;;;;19.83;14.32;;;11.50;68.50;;;;;;5000686;28;20026;-74
2022/03/13 03:01:55;;;;;;;22.00;15.05;;;11.40;68.70;;;;;;5006624;28;20026;-75
2022/03/13 03:04:23;;;;;;;21.38;15.35;;;11.40;68.80;;;;;;5000240;28;20026;-75
2022/03/13 03:07:12;;;;;;;20.92;15.10;;;11.40;69.30;;;;;;5004329;28;20409;-74
2022/03/13 03:09:37;;;;;;;22.20;14.93;;;11.20;69.50;;;;;;5012573;28;20112;-73
2022/03/13 03:12:04;;;;;;;20.77;15.20;;;11.20;69.60;;;;;;5012227;28;20104;-75
2022/03/13 03:14:30;;;;;;;19.17;14.35;;;11.20;69.70;;;;;;5012599;28;20025;-74
2022/03/13 03:16:56;;;;;;;23.98;15.38;;;11.20;69.60;;;;;;5011973;28;20030;-74
2022/03/13 03:19:22;;;;;;;21.70;15.13;;;11.20;69.70;;;;;;5011638;28;20022;-74
2022/03/13 03:21:48;;;;;;;22.48;15.32;;;11.10;69.60;;;;;;5012371;28;20034;-74
2022/03/13 03:24:18;;;;;;;19.50;14.60;;;11.10;69.60;;;;;;5012342;28;20501;-73
2022/03/13 03:26:44;;;;;;;22.17;15.40;;;11.20;69.60;;;;;;5011855;28;20018;-73
2022/03/13 03:29:10;;;;;;;20.98;15.38;;;11.10;69.80;;;;;;5011846;28;20084;-73
2022/03/13 03:31:40;;;;;;;22.38;14.85;;;11.20;69.90;;;;;;5012313;28;20025;-73
2022/03/13 03:34:12;;;;;;;21.27;15.38;;;11.10;69.70;;;;;;5012344;28;20041;-73
2022/03/13 03:36:39;;;;;;;20.30;15.00;;;11.20;69.60;;;;;;5012612;28;20551;-73
2022/03/13 03:39:07;;;;;;;23.58;16.40;;;11.20;69.50;;;;;;5013393;28;20105;-73
2022/03/13 03:41:32;;;;;;;20.92;14.75;;;11.20;69.30;;;;;;5012643;28;20029;-74
2022/03/13 03:43:58;;;;;;;23.80;16.58;;;11.20;69.30;;;;;;5011247;28;20381;-73
2022/03/13 03:46:24;;;;;;;25.13;15.20;;;11.10;69.10;;;;;;5010783;28;20036;-74
2022/03/13 03:48:50;;;;;;;20.95;15.48;;;11.10;69.10;;;;;;5012071;28;20026;-73
2022/03/13 03:51:16;;;;;;;20.77;15.32;;;11.20;69.00;;;;;;5010481;28;20041;-74
2022/03/13 03:53:42;;;;;;;22.05;15.32;;;11.10;68.80;;;;;;5011434;28;20477;-73
2022/03/13 03:56:07;;;;;;;21.05;15.07;;;11.00;68.90;;;;;;5010865;28;20058;-74
2022/03/13 03:58:33;;;;;;;20.50;15.32;;;11.10;69.00;;;;;;5011823;28;20495;-73
2022/03/13 04:00:59;;;;;;;22.17;16.10;;;11.00;69.00;;;;;;5011565;28;20077;-74
2022/03/13 04:03:25;;;;;;;23.30;15.40;;;11.00;68.80;;;;;;5011329;28;20077;-74
2022/03/13 04:05:51;;;;;;;20.40;14.02;;;11.00;68.90;;;;;;5011361;28;20105;-74
2022/03/13 04:08:16;;;;;;;22.05;14.70;;;11.00;68.60;;;;;;5011566;28;20381;-74
2022/03/13 04:10:42;;;;;;;21.35;14.98;;;11.10;68.40;;;;;;5011228;28;20495;-73
2022/03/13 04:13:07;;;;;;;21.95;15.25;;;11.10;68.20;;;;;;5012110;28;20496;-73
2022/03/13 04:15:33;;;;;;;21.13;14.93;;;11.10;68.00;;;;;;5011223;28;20049;-74
2022/03/13 04:17:58;;;;;;;22.30;14.48;;;11.10;67.80;;;;;;5010484;28;20030;-73
2022/03/13 04:20:25;;;;;;;18.40;13.77;;;11.20;67.70;;;;;;5011043;28;20044;-74
2022/03/13 04:22:50;;;;;;;23.73;15.82;;;11.10;67.70;;;;;;5010670;28;20034;-74
2022/03/13 04:25:19;;;;;;;23.77;14.73;;;11.20;68.00;;;;;;5011939;28;20025;-73
2022/03/13 04:27:45;;;;;;;23.08;14.70;;;11.20;67.80;;;;;;5011452;28;20042;-73
2022/03/13 04:30:11;;;;;;;21.70;14.68;;;11.30;67.50;;;;;;5011668;28;20034;-73
2022/03/13 04:32:36;;;;;;;22.25;14.80;;;11.20;67.20;;;;;;5010773;28;20054;-74
2022/03/13 04:35:02;;;;;;;22.35;14.57;;;11.20;66.90;;;;;;5010671;28;20377;-74
2022/03/13 04:37:28;;;;;;;22.27;14.38;;;11.30;66.60;;;;;;5011588;28;20428;-74
2022/03/13 04:39:54;;;;;;;18.08;13.27;;;11.20;66.30;;;;;;5010796;28;20026;-73
2022/03/13 04:42:19;;;;;;;19.77;14.07;;;11.20;66.90;;;;;;5011599;28;20161;-74
2022/03/13 04:44:46;;;;;;;21.83;14.32;;;11.30;66.20;;;;;;5011558;28;20156;-74
2022/03/13 04:47:12;;;;;;;19.80;13.70;;;11.30;66.00;;;;;;5011765;28;20021;-74
2022/03/13 04:49:37;;;;;;;17.23;13.10;;;11.30;65.70;;;;;;5011952;28;20049;-74
2022/03/13 04:52:04;;;;;;;21.10;14.10;;;11.30;65.60;;;;;;5011607;28;20411;-73
2022/03/13 04:54:30;;;;;;;20.05;14.13;;;11.30;65.20;;;;;;5011945;28;20027;-74
2022/03/13 04:56:56;;;;;;;22.25;14.52;;;11.30;64.60;;;;;;5011886;28;20026;-74
2022/03/13 04:59:21;;;;;;;19.88;13.43;;;11.30;64.30;;;;;;5010756;28;20030;-74
2022/03/13 05:01:47;;;;;;;18.90;14.50;;;11.10;63.90;;;;;;5010803;28;20370;-74
2022/03/13 05:04:13;;;;;;;18.83;13.30;;;11.00;64.10;;;;;;5013875;28;20473;-73
2022/03/13 05:06:45;;;;;;;19.05;12.20;;;10.90;63.60;;;;;;5013923;28;20096;-73
2022/03/13 05:09:13;;;;;;;19.92;12.80;;;10.90;63.90;;;;;;5014524;28;20030;-73
2022/03/13 05:11:42;;;;;;;15.77;11.45;;;11.00;63.20;;;;;;5014530;28;20073;-74
2022/03/13 05:14:07;;;;;;;15.77;11.27;;;11.00;62.90;;;;;;5015185;28;20354;-72
2022/03/13 05:16:39;;;;;;;20.10;12.45;;;11.10;62.60;;;;;;5013317;28;20045;-73
2022/03/13 05:19:06;;;;;;;15.27;10.85;;;11.10;61.90;;;;;;5014906;28;20084;-73
2022/03/13 05:21:32;;;;;;;17.85;11.77;;;11.00;61.80;;;;;;5013004;28;20026;-73
2022/03/13 05:23:57;;;;;;;17.17;11.15;;;11.00;61.40;;;;;;5014664;28;20033;-74
2022/03/13 05:26:23;;;;;;;18.58;12.05;;;11.00;61.40;;;;;;5013280;28;20076;-73
2022/03/13 05:28:49;;;;;;;19.20;11.82;;;10.90;60.80;;;;;;5014345;28;20109;-73
2022/03/13 05:31:14;;;;;;;15.32;10.23;;;10.90;60.90;;;;;;5014076;28;20038;-74
2022/03/13 05:33:40;;;;;;;14.38;11.02;;;10.80;61.00;;;;;;5013988;28;20377;-74
2022/03/13 05:36:06;;;;;;;15.65;11.32;;;10.80;60.90;;;;;;5013485;28;20025;-74
2022/03/13 05:38:35;;;;;;;15.25;10.98;;;10.90;60.60;;;;;;5013089;28;20026;-74
2022/03/13 05:41:02;;;;;;;16.63;11.35;;;10.80;60.30;;;;;;5014051;28;20485;-74
2022/03/13 05:43:31;;;;;;;22.35;11.32;;;10.70;60.30;;;;;;5014831;28;20033;-74
2022/03/13 05:45:56;;;;;;;20.70;11.82;;;10.70;60.30;;;;;;5015031;28;20034;-73
2022/03/13 05:48:23;;;;;;;15.57;10.73;;;10.60;60.60;;;;;;5015454;28;20022;-74
2022/03/13 05:50:48;;;;;;;15.98;10.88;;;10.60;60.70;;;;;;5015160;28;20124;-73
2022/03/13 05:53:14;;;;;;;15.27;10.85;;;10.60;60.50;;;;;;5012960;28;20470;-74
2022/03/13 05:55:40;;;;;;;14.38;10.18;;;10.60;60.20;;;;;;5014577;28;20025;-73
2022/03/13 05:58:06;;;;;;;22.05;10.73;;;10.70;60.00;;;;;;5012845;28;20125;-73
2022/03/13 06:00:32;;;;;;;15.60;10.63;;;10.70;59.30;;;;;;5014391;28;20065;-73
2022/03/13 06:02:59;;;;;;;16.48;10.27;;;10.70;59.60;;;;;;5012882;28;20045;-73
2022/03/13 06:05:24;;;;;;;15.00;10.10;;;10.80;59.60;;;;;;5014199;28;20116;-73
2022/03/13 06:07:51;;;;;;;16.70;10.15;;;10.90;59.10;;;;;;5012555;28;20130;-74
2022/03/13 06:10:18;;;;;;;16.20;11.02;;;10.90;59.00;;;;;;5013784;28;20507;-74
2022/03/13 06:12:44;;;;;;;15.98;10.60;;;11.00;58.80;;;;;;5011826;28;20053;-75
2022/03/13 06:15:14;;;;;;;16.77;11.00;;;11.10;58.80;;;;;;5012972;28;20377;-74
2022/03/13 06:17:42;;;;;;;18.15;10.10;;;11.10;58.30;;;;;;5012376;28;20025;-73
2022/03/13 06:20:12;;;;;;;13.68;10.38;;;11.10;57.90;;;;;;5013400;28;20026;-73
2022/03/13 06:22:39;;;;;;;16.20;10.20;;;10.90;57.90;;;;;;5013927;28;20044;-73
2022/03/13 06:25:07;;;;;;;13.73;9.60;;;10.90;58.30;;;;;;5013864;28;20030;-74
2022/03/13 06:27:33;;;;;;;14.25;10.30;;;10.90;58.20;;;;;;5012140;28;20099;-74
2022/03/13 06:30:05;;;;;;;14.65;10.05;;;10.90;58.10;;;;;;5013025;28;20034;-73
2022/03/13 06:32:32;;;;;;;15.38;10.45;;;11.00;58.20;;;;;;5011410;28;20385;-74
2022/03/13 06:34:58;;;;;;;18.00;10.70;;;11.00;57.80;;;;;;5012668;28;20045;-74
2022/03/13 06:37:23;;;;;;;15.65;10.55;;;11.00;57.40;;;;;;5012117;28;20030;-74
2022/03/13 06:39:51;;;;;;;16.38;9.98;;;10.80;57.20;;;;;;5012580;28;20025;-74
2022/03/13 06:42:18;;;;;;;15.23;9.25;;;10.80;58.20;;;;;;5012707;28;20026;-74
2022/03/13 06:44:44;;;;;;;15.10;9.40;;;10.80;57.60;;;;;;5012831;28;20056;-74
2022/03/13 06:47:09;;;;;;;15.60;10.88;;;10.80;57.40;;;;;;5012599;28;20026;-74
2022/03/13 06:49:36;;;;;;;14.13;10.00;;;10.70;56.90;;;;;;5011450;28;20030;-74
2022/03/13 06:52:05;;;;;;;16.90;10.40;;;10.70;57.20;;;;;;5012430;28;20042;-75
2022/03/13 06:54:30;;;;;;;15.73;11.02;;;10.70;56.80;;;;;;5011747;28;20030;-75
2022/03/13 06:56:56;;;;;;;14.63;10.02;;;10.70;56.60;;;;;;5012021;28;20022;-75
2022/03/13 06:59:21;;;;;;;14.60;10.55;;;10.60;57.00;;;;;;5012067;28;20057;-75
2022/03/13 07:01:47;;;;;;;15.60;9.98;;;10.70;56.90;;;;;;5012495;28;20036;-75
2022/03/13 07:04:14;;;;;;;17.13;9.90;;;10.70;56.10;;;;;;5012414;28;20034;-74
2022/03/13 07:06:43;;;;;;;15.88;9.50;;;10.60;56.00;;;;;;5011582;28;20064;-74
2022/03/13 07:09:09;;;;;;;12.95;9.70;;;10.70;56.30;;;;;;5012581;28;20030;-74
2022/03/13 07:11:34;;;;;;;16.77;9.93;;;10.60;56.00;;;;;;5012709;28;20100;-74
2022/03/13 07:14:08;;;;;;;14.52;9.98;;;10.60;56.40;;;;;;5012058;28;20473;-74
2022/03/13 07:16:33;;;;;;;;;;;10.60;56.20;;;;;;5010594;28;20061;-73
2022/03/13 07:18:59;;;;;;;13.05;9.15;;;10.70;56.00;;;;;;5012247;28;19960;-74
2022/03/13 07:21:24;;;;;;;15.85;9.57;;;10.70;55.80;;;;;;5011886;28;20029;-74
2022/03/13 07:23:50;;;;;;;15.90;8.73;;;10.70;54.90;;;;;;5012024;28;20500;-75
2022/03/13 07:26:15;;;;;;;13.50;9.00;;;10.60;54.80;;;;;;5011799;28;20034;-77
2022/03/13 07:28:41;;;;;;;18.40;10.82;;;10.50;55.30;;;;;;5011636;28;20104;-81
2022/03/13 07:31:07;;;;;;;13.93;9.73;;;10.60;55.60;;;;;;5012083;28;20436;-84
2022/03/13 07:33:33;;;;;;;17.15;9.48;;;10.60;55.60;;;;;;5011258;28;20025;-83
2022/03/13 07:36:02;;;;;;;14.88;10.10;;;10.60;55.60;;;;;;5011507;28;20539;-80
2022/03/13 07:38:28;;;;;;;16.65;9.40;;;10.70;55.20;;;;;;5010093;28;20040;-80
2022/03/13 07:40:53;;;;;;;14.63;9.95;;;10.70;54.70;;;;;;5011654;28;20022;-81
2022/03/13 07:43:19;;;;;;;13.98;9.93;;;10.60;55.00;;;;;;5011177;28;20026;-81
2022/03/13 07:45:49;;;;;;;15.73;10.38;;;10.60;55.40;;;;;;5012971;28;20354;-83
2022/03/13 07:48:18;;;;;;;14.80;9.40;;;10.60;54.70;;;;;;5011107;28;20060;-84
2022/03/13 07:50:43;;;;;;;15.60;9.57;;;10.50;54.60;;;;;;5012204;28;20034;-79
2022/03/13 07:53:09;;;;;;;13.73;8.80;;;10.60;54.80;;;;;;5011014;28;20025;-81
2022/03/13 07:55:35;;;;;;;14.00;9.23;;;10.60;54.40;;;;;;5011014;28;21417;-81
2022/03/13 07:58:00;;;;;;;13.65;9.07;;;10.60;54.10;;;;;;5011190;28;20080;-80
2022/03/13 08:00:29;;;;;;;14.68;9.55;;;10.70;55.00;;;;;;5011471;28;20030;-82
2022/03/13 08:02:54;;;;;;;15.68;9.98;;;10.70;54.10;;;;;;5012641;28;20056;-82
2022/03/13 08:05:24;;;;;;;13.68;9.38;;;10.80;53.90;;;;;;5011252;28;20053;-81
2022/03/13 08:07:51;;;;;;;15.93;9.77;;;10.70;53.80;;;;;;5002165;28;20050;-82
2022/03/13 08:10:23;;;;;;;13.50;9.13;;;10.80;53.70;;;;;;5004783;28;20117;-80
2022/03/13 08:12:50;;;;;;;15.55;8.80;;;10.80;53.40;;;;;;5000962;28;20537;-80
2022/03/13 08:15:15;;;;;;;16.83;9.73;;;10.80;53.80;;;;;;4995054;28;20026;-79
2022/03/13 08:17:41;;;;;;;13.70;8.68;;;10.80;52.90;;;;;;5000934;28;20485;-82
2022/03/13 08:20:07;;;;;;;14.68;9.25;;;10.90;53.80;;;;;;5009587;28;20030;-81
2022/03/13 08:22:33;;;;;;;14.48;8.82;;;11.00;52.90;;;;;;5007856;28;20436;-81
2022/03/13 08:24:59;;;;;;;15.10;9.00;;;11.00;53.40;;;;;;5010055;28;20073;-82
2022/03/13 08:27:25;;;;;;;16.23;9.50;;;11.10;53.60;;;;;;5006344;28;20581;-80
2022/03/13 08:29:51;;;;;;;12.57;9.50;;;11.20;53.40;;;;;;5008286;28;20591;-80
2022/03/13 08:32:17;;;;;;;16.70;9.55;;;11.30;52.70;;;;;;4998630;28;20022;-83
2022/03/13 08:34:44;;;;;;;13.43;8.80;;;11.30;52.30;;;;;;5003712;28;20026;-85
2022/03/13 08:37:10;;;;;;;14.23;9.35;;;11.40;52.60;;;;;;4994872;28;20038;-79
2022/03/13 08:39:36;;;;;;;13.43;9.32;;;11.50;52.70;;;;;;5012826;28;20485;-79
2022/03/13 08:42:03;;;;;;;12.38;8.70;;;11.50;52.10;;;;;;5010243;28;20129;-79
2022/03/13 08:44:28;;;;;;;14.30;9.70;;;11.50;52.20;;;;;;5012890;28;20033;-80
2022/03/13 08:46:55;;;;;;;14.85;9.77;;;11.50;51.60;;;;;;5006234;28;20026;-83
2022/03/13 08:49:20;;;;;;;15.70;9.13;;;11.50;51.20;;;;;;5010928;28;21519;-79
2022/03/13 08:51:46;;;;;;;14.02;9.50;;;11.40;51.80;;;;;;4997570;28;20113;-79
2022/03/13 08:54:16;;;;;;;15.00;9.45;;;11.40;51.60;;;;;;5009688;28;20029;-78
2022/03/13 08:56:42;;;;;;;13.85;9.25;;;11.40;51.90;;;;;;5015306;28;20034;-80
2022/03/13 08:59:08;;;;;;;14.23;10.10;;;11.40;51.70;;;;;;5009340;28;20037;-81
2022/03/13 09:01:34;;;;;;;17.70;9.55;;;11.30;52.10;;;;;;5000107;28;20022;-80
2022/03/13 09:03:59;;;;;;;16.58;10.18;;;11.30;52.20;;;;;;5000219;28;20061;-80
2022/03/13 09:06:25;;;;;;;14.95;9.43;;;11.40;52.10;;;;;;5006318;28;20041;-82
2022/03/13 09:08:51;;;;;;;14.32;9.35;;;11.40;52.10;;;;;;5018036;28;20026;-85
2022/03/13 09:11:17;;;;;;;16.10;9.75;;;11.40;51.10;;;;;;5017892;28;20037;-81
2022/03/13 09:13:43;;;;;;;14.02;9.52;;;11.40;51.20;;;;;;5017299;28;20104;-84
2022/03/13 09:16:08;;;;;;;12.52;8.88;;;11.50;51.30;;;;;;5017375;28;20030;-80
2022/03/13 09:18:34;;;;;;;13.77;9.27;;;11.50;51.40;;;;;;5017805;28;20030;-79
2022/03/13 09:21:00;;;;;;;16.73;9.43;;;11.50;51.30;;;;;;5017010;28;20037;-79
2022/03/13 09:23:26;;;;;;;16.27;9.13;;;11.60;51.60;;;;;;5017699;28;20026;-83
2022/03/13 09:25:53;;;;;;;15.90;9.57;;;11.60;51.50;;;;;;5017612;28;20046;-81
2022/03/13 09:28:19;;;;;;;13.38;9.50;;;11.70;50.90;;;;;;5020865;28;20065;-82
2022/03/13 09:30:45;;;;;;;15.48;10.23;;;11.70;51.00;;;;;;5018503;28;20065;-84
2022/03/13 09:33:12;;;;;;;12.55;8.90;;;11.80;50.60;;;;;;5016930;28;20473;-83
2022/03/13 09:35:38;;;;;;;14.15;9.70;;;11.90;50.60;;;;;;5016890;28;20111;-87
2022/03/13 09:38:04;;;;;;;14.18;9.85;;;11.90;50.10;;;;;;5016620;28;20584;-80
2022/03/13 09:40:30;;;;;;;15.02;9.95;;;11.90;50.60;;;;;;5017471;28;20030;-79
2022/03/13 09:42:55;;;;;;;15.38;9.32;;;12.00;50.10;;;;;;5016082;28;20018;-78
2022/03/13 09:45:21;;;;;;;19.63;9.95;;;12.20;50.20;;;;;;5016783;28;20393;-80
2022/03/13 09:47:47;;;;;;;16.30;9.38;;;12.40;50.50;;;;;;5018146;28;20038;-80
2022/03/13 09:50:13;;;;;;;15.95;9.73;;;12.60;50.20;;;;;;5015940;28;20089;-80
2022/03/13 09:52:40;;;;;;;14.20;10.30;;;12.80;49.00;;;;;;5014590;28;20029;-78
2022/03/13 09:55:08;;;;;;;12.85;9.07;;;13.00;48.80;;;;;;5014604;28;20026;-82
2022/03/13 09:57:36;;;;;;;17.20;9.73;;;13.10;49.00;;;;;;5013976;28;20354;-81
2022/03/13 10:00:03;;;;;;;14.82;9.15;;;13.30;48.80;;;;;;5014107;28;20088;-79
2022/03/13 10:02:37;;;;;;;14.88;10.13;;;13.60;48.40;;;;;;5013063;28;20029;-82
2022/03/13 10:05:06;;;;;;;13.45;8.25;;;13.70;49.50;;;;;;5014837;28;20037;-82
2022/03/13 10:07:52;;;;;;;12.98;9.38;;;14.00;53.50;;;;;;5014614;28;20053;-81
2022/03/13 10:10:18;;;;;;;13.07;9.40;;;14.40;50.10;;;;;;5014782;28;20512;-81
2022/03/13 10:12:46;;;;;;;11.65;8.57;;;14.40;50.00;;;;;;5014853;28;20466;-82
2022/03/13 10:15:13;;;;;;;14.63;8.93;;;14.60;51.70;;;;;;5011609;28;20034;-83
2022/03/13 10:17:40;;;;;;;15.30;9.88;;;14.80;50.30;;;;;;5015530;28;20030;-82
2022/03/13 10:20:16;;;;;;;13.18;9.40;;;14.90;49.50;;;;;;5015554;28;20470;-82
2022/03/13 10:22:44;;;;;;;14.57;9.02;;;15.10;48.40;;;;;;5013567;28;20034;-83
2022/03/13 10:25:13;;;;;;;14.13;10.13;;;15.20;48.70;;;;;;5016463;28;20042;-82
2022/03/13 10:27:39;;;;;;;16.13;10.52;;;15.20;49.00;;;;;;5017967;28;20033;-82
2022/03/13 10:30:07;;;;;;;16.67;10.68;;;15.40;47.70;;;;;;5017996;28;20041;-82
2022/03/13 10:32:33;;;;;;;16.77;10.98;;;15.50;47.20;;;;;;5012908;28;20436;-79
2022/03/13 10:34:58;;;;;;;17.40;10.88;;;15.70;48.30;;;;;;5013117;28;20166;-79
2022/03/13 10:37:43;;;;;;;18.63;10.88;;;15.70;48.40;;;;;;5012970;28;20048;-78
2022/03/13 10:40:22;;;;;;;15.50;11.02;;;15.70;47.70;;;;;;5012878;28;20104;-79
2022/03/13 10:42:48;;;;;;;16.15;11.10;;;15.80;47.30;;;;;;5012686;28;20048;-79
2022/03/13 10:45:36;;;;;;;16.77;10.32;;;15.70;47.10;;;;;;5013893;28;20033;-79
2022/03/13 10:48:21;;;;;;;15.43;9.88;;;15.70;49.00;;;;;;5012014;28;20022;-83
2022/03/13 10:50:50;;;;;;;15.30;11.20;;;16.10;49.00;;;;;;5009663;28;20085;-83
2022/03/13 10:53:20;;;;;;;15.52;10.80;;;16.30;48.70;;;;;;5014113;28;20022;-83
2022/03/13 10:56:01;;;;;;;17.15;11.07;;;16.40;47.30;;;;;;5014005;28;20034;-81
2022/03/13 10:58:30;;;;;;;15.65;10.98;;;16.50;48.10;;;;;;5012283;28;20533;-81
2022/03/13 11:01:07;;;;;;;15.13;10.32;;;16.60;48.20;;;;;;5012962;28;20026;-82
2022/03/13 11:03:35;;;;;;;17.95;11.25;;;16.70;48.50;;;;;;5013678;28;20113;-83
2022/03/13 11:06:01;;;;;;;16.52;10.70;;;16.70;48.30;;;;;;5016377;28;20099;-84
2022/03/13 11:08:28;;;;;;;16.13;10.75;;;16.80;48.10;;;;;;5015062;28;20033;-84
2022/03/13 11:10:54;;;;;;;15.88;11.02;;;17.00;48.60;;;;;;5014142;28;20033;-84
2022/03/13 11:13:23;;;;;;;16.85;11.02;;;17.00;47.70;;;;;;5012723;28;20021;-84
2022/03/13 11:15:49;;;;;;;18.63;11.52;;;17.00;47.20;;;;;;5012281;28;20033;-82
2022/03/13 11:18:17;;;;;;;16.40;11.40;;;17.00;48.20;;;;;;5011644;28;20027;-81
2022/03/13 11:20:43;;;;;;;15.43;10.63;;;17.10;49.50;;;;;;5011972;28;20017;-83
2022/03/13 11:23:09;;;;;;;13.80;11.02;;;17.20;48.00;;;;;;5011417;28;20030;-80
2022/03/13 11:25:35;;;;;;;15.02;10.60;;;17.30;47.40;;;;;;5011513;28;20030;-80
2022/03/13 11:28:02;;;;;;;15.50;10.77;;;17.40;47.00;;;;;;5011952;28;20018;-84
2022/03/13 11:30:32;;;;;;;15.85;10.35;;;17.50;48.10;;;;;;5012302;28;20741;-81
2022/03/13 11:33:00;;;;;;;16.17;10.63;;;17.60;47.40;;;;;;5010742;28;20091;-81
2022/03/13 11:35:28;;;;;;;16.58;10.93;;;17.70;48.20;;;;;;5012818;28;20030;-76
2022/03/13 11:38:16;;;;;;;14.10;10.15;;;17.80;48.40;;;;;;5011562;28;20474;-83
2022/03/13 11:40:42;;;;;;;18.42;11.32;;;17.90;47.20;;;;;;5012822;28;20025;-80
2022/03/13 11:43:13;;;;;;;15.07;11.20;;;18.00;47.50;;;;;;5011851;28;20018;-79
2022/03/13 11:45:41;;;;;;;15.00;10.63;;;18.00;47.00;;;;;;5012362;28;20039;-79
2022/03/13 11:48:18;;;;;;;15.38;10.55;;;18.00;48.20;;;;;;5012406;28;20030;-78
2022/03/13 11:50:59;;;;;;;14.07;10.52;;;18.00;47.10;;;;;;5012713;28;20155;-78
2022/03/13 11:53:25;;;;;;;14.68;10.57;;;18.00;47.70;;;;;;5011712;28;20030;-79
2022/03/13 11:55:57;;;;;;;17.35;10.85;;;18.20;47.60;;;;;;5010784;28;20034;-78
2022/03/13 11:58:48;;;;;;;16.10;10.77;;;18.30;47.30;;;;;;5011697;28;20405;-83
2022/03/13 12:01:18;;;;;;;14.20;10.38;;;18.40;47.20;;;;;;5011804;28;20030;-82
2022/03/13 12:04:05;;;;;;;13.82;9.65;;;18.40;46.90;;;;;;5011454;28;20025;-78
2022/03/13 12:06:41;;;;;;;14.70;9.38;;;18.50;47.60;;;;;;5010855;28;20061;-80
2022/03/13 12:09:17;;;;;;;14.25;10.32;;;18.60;47.40;;;;;;5013546;28;20417;-81
2022/03/13 12:11:59;;;;;;;12.07;9.05;;;18.60;46.60;;;;;;5012992;28;20053;-81
2022/03/13 12:14:50;;;;;;;11.45;8.90;;;18.70;46.20;;;;;;5011958;28;20033;-79
2022/03/13 12:17:16;;;;;;;13.02;8.70;;;18.70;46.70;;;;;;5010389;28;20037;-79
2022/03/13 12:19:42;;;;;;;12.48;9.27;;;18.80;46.10;;;;;;5011596;28;20026;-79
2022/03/13 12:22:08;;;;;;;12.48;9.82;;;18.80;46.40;;;;;;5011603;28;20033;-81
2022/03/13 12:24:34;;;;;;;11.55;8.90;;;18.80;45.90;;;;;;5011014;28;20078;-80
2022/03/13 12:27:05;;;;;;;15.57;9.07;;;18.80;46.80;;;;;;5010665;28;20054;-82
2022/03/13 12:29:32;;;;;;;14.02;9.60;;;18.90;47.60;;;;;;5012995;28;20022;-82
2022/03/13 12:32:00;;;;;;;12.95;9.23;;;18.80;46.50;;;;;;5012285;28;20057;-79
2022/03/13 12:34:27;;;;;;;16.05;10.45;;;18.80;45.90;;;;;;5012344;28;20049;-79